createdAt,value
2022-09-15T00:02:10.428Z,51.28
2022-09-15T00:04:37.491Z,52.53
2022-09-15T00:07:24.320Z,51.75
2022-09-15T00:10:25.282Z,50.25
2022-09-15T00:13:26.303Z,47.85
2022-09-15T00:16:28.374Z,47.92
2022-09-15T00:19:09.027Z,46.47
2022-09-15T00:21:39.234Z,45.55
2022-09-15T00:24:06.792Z,48.80
2022-09-15T00:26:33.854Z,49.17
2022-09-15T00:29:01.487Z,51.70
2022-09-15T00:31:30.087Z,49.75
2022-09-15T00:33:58.979Z,52.38
2022-09-15T00:36:26.972Z,53.72
2022-09-15T00:38:54.318Z,50.70
2022-09-15T00:41:23.440Z,51.28
2022-09-15T00:43:53.340Z,50.85
2022-09-15T00:46:23.999Z,51.03
2022-09-15T00:49:05.727Z,53.05
2022-09-15T00:52:00.435Z,50.80
2022-09-15T00:54:31.016Z,49.67
2022-09-15T00:57:02.858Z,52.33
2022-09-15T00:59:51.303Z,50.88
2022-09-15T01:02:34.799Z,54.50
2022-09-15T01:05:05.290Z,56.58
2022-09-15T01:08:05.323Z,53.95
2022-09-15T01:11:06.355Z,55.25
2022-09-15T01:14:07.329Z,57.70
2022-09-15T01:17:04.099Z,54.47
2022-09-15T01:19:34.000Z,57.85
2022-09-15T01:22:21.848Z,57.53
2022-09-15T01:25:20.634Z,59.75
2022-09-15T01:27:57.939Z,58.88
2022-09-15T01:30:25.954Z,59.85
2022-09-15T01:33:11.655Z,60.72
2022-09-15T01:36:05.207Z,59.95
2022-09-15T01:38:41.779Z,60.05
2022-09-15T01:41:29.668Z,57.38
2022-09-15T01:44:06.529Z,56.25
2022-09-15T01:46:39.342Z,59.90
2022-09-15T01:49:12.166Z,61.72
2022-09-15T01:51:40.879Z,59.38
2022-09-15T01:54:08.920Z,59.05
2022-09-15T01:56:37.882Z,61.10
2022-09-15T01:59:25.362Z,60.28
2022-09-15T02:02:34.375Z,58.80
2022-09-15T02:05:53.342Z,59.65
2022-09-15T02:08:58.387Z,60.83
2022-09-15T02:11:53.089Z,61.47
2022-09-15T02:14:57.421Z,63.03
2022-09-15T02:17:45.668Z,59.90
2022-09-15T02:20:20.243Z,60.38
2022-09-15T02:22:53.999Z,61.83
2022-09-15T02:25:29.012Z,61.80
2022-09-15T02:28:02.642Z,57.92
2022-09-15T02:30:32.104Z,58.85
2022-09-15T02:33:04.039Z,56.47
2022-09-15T02:35:34.929Z,59.25
2022-09-15T02:38:05.314Z,62.17
2022-09-15T02:40:32.649Z,59.38
2022-09-15T02:43:02.030Z,62.30
2022-09-15T02:45:33.963Z,59.03
2022-09-15T02:48:00.985Z,59.15
2022-09-15T02:50:27.985Z,57.30
2022-09-15T02:52:55.735Z,56.90
2022-09-15T02:55:23.741Z,58.97
2022-09-15T02:58:11.449Z,58.00
2022-09-15T03:01:15.491Z,59.75
2022-09-15T03:04:17.377Z,64.17
2022-09-15T03:07:11.546Z,64.43
2022-09-15T03:10:05.440Z,61.88
2022-09-15T03:13:07.437Z,61.33
2022-09-15T03:15:47.953Z,59.47
2022-09-15T03:18:14.862Z,58.15
2022-09-15T03:20:41.741Z,58.63
2022-09-15T03:23:08.797Z,59.80
2022-09-15T03:25:35.919Z,59.72
2022-09-15T03:28:03.087Z,57.45
2022-09-15T03:30:30.060Z,58.33
2022-09-15T03:32:56.902Z,60.90
2022-09-15T03:35:23.817Z,62.90
2022-09-15T03:37:50.789Z,64.28
2022-09-15T03:40:18.114Z,64.90
2022-09-15T03:42:45.104Z,62.65
2022-09-15T03:45:11.946Z,62.47
2022-09-15T03:47:39.117Z,66.80
2022-09-15T03:50:06.894Z,63.95
2022-09-15T03:52:33.795Z,62.85
2022-09-15T03:55:00.844Z,62.20
2022-09-15T03:57:27.760Z,59.70
2022-09-15T04:00:15.431Z,59.70
2022-09-15T04:02:56.122Z,58.03
2022-09-15T04:05:36.617Z,59.05
2022-09-15T04:08:30.438Z,61.65
2022-09-15T04:11:32.449Z,61.03
2022-09-15T04:14:25.443Z,58.75
2022-09-15T04:17:05.999Z,60.35
2022-09-15T04:19:32.820Z,59.30
2022-09-15T04:21:59.759Z,59.13
2022-09-15T04:24:26.646Z,58.33
2022-09-15T04:26:53.597Z,61.40
2022-09-15T04:29:20.488Z,61.97
2022-09-15T04:31:47.413Z,61.85
2022-09-15T04:34:14.430Z,61.55
2022-09-15T04:36:41.290Z,61.35
2022-09-15T04:39:08.202Z,63.72
2022-09-15T04:41:35.132Z,65.93
2022-09-15T04:44:02.487Z,60.97
2022-09-15T04:46:29.452Z,56.10
2022-09-15T04:48:56.996Z,56.50
2022-09-15T04:51:25.100Z,55.22
2022-09-15T04:53:52.198Z,57.13
2022-09-15T04:56:22.301Z,59.58
2022-09-15T04:59:11.456Z,58.00
2022-09-15T05:02:12.503Z,58.55
2022-09-15T05:04:55.154Z,60.97
2022-09-15T05:07:42.467Z,61.92
2022-09-15T05:10:44.506Z,58.53
2022-09-15T05:13:45.484Z,58.80
2022-09-15T05:16:46.494Z,59.15
2022-09-15T05:19:47.505Z,59.53
2022-09-15T05:22:28.559Z,61.40
2022-09-15T05:24:55.588Z,59.50
2022-09-15T05:27:22.585Z,60.47
2022-09-15T05:29:49.468Z,55.67
2022-09-15T05:32:16.422Z,57.05
2022-09-15T05:34:43.367Z,54.40
2022-09-15T05:37:10.400Z,51.80
2022-09-15T05:39:38.088Z,55.28
2022-09-15T05:42:05.225Z,59.65
2022-09-15T05:44:32.133Z,57.47
2022-09-15T05:46:59.058Z,57.50
2022-09-15T05:49:46.540Z,55.22
2022-09-15T05:52:27.111Z,52.90
2022-09-15T05:54:58.877Z,56.10
2022-09-15T05:57:26.151Z,59.42
2022-09-15T06:00:06.515Z,57.13
2022-09-15T06:02:47.302Z,54.40
2022-09-15T06:05:14.274Z,56.92
2022-09-15T06:08:14.500Z,56.72
2022-09-15T06:11:22.520Z,56.35
2022-09-15T06:14:25.477Z,52.05
2022-09-15T06:17:26.499Z,50.05
2022-09-15T06:20:07.754Z,50.58
2022-09-15T06:22:34.680Z,48.75
2022-09-15T06:25:01.607Z,48.00
2022-09-15T06:27:28.507Z,46.03
2022-09-15T06:29:55.310Z,44.88
2022-09-15T06:32:22.188Z,42.25
2022-09-15T06:34:49.005Z,42.70
2022-09-15T06:37:16.374Z,40.88
2022-09-15T06:39:44.374Z,36.05
2022-09-15T06:42:13.819Z,34.25
2022-09-15T06:44:41.745Z,36.85
2022-09-15T06:47:09.027Z,33.55
2022-09-15T06:49:35.877Z,30.05
2022-09-15T06:52:02.824Z,32.20
2022-09-15T06:54:29.845Z,30.10
2022-09-15T06:56:56.800Z,29.75
2022-09-15T06:59:43.505Z,28.98
2022-09-15T07:02:24.204Z,29.60
2022-09-15T07:04:51.128Z,25.60
2022-09-15T07:07:38.564Z,29.45
2022-09-15T07:10:19.145Z,21.77
2022-09-15T07:13:01.328Z,18.80
2022-09-15T07:15:41.153Z,22.52
2022-09-15T07:18:28.553Z,19.98
2022-09-15T07:21:31.563Z,20.38
2022-09-15T07:24:12.785Z,18.85
2022-09-15T07:26:39.815Z,20.90
2022-09-15T07:29:07.326Z,22.98
2022-09-15T07:31:37.004Z,21.10
2022-09-15T07:34:04.986Z,22.90
2022-09-15T07:36:32.057Z,21.52
2022-09-15T07:39:19.575Z,21.88
2022-09-15T07:42:00.220Z,20.23
2022-09-15T07:44:27.130Z,20.92
2022-09-15T07:46:54.045Z,21.95
2022-09-15T07:49:40.590Z,23.42
2022-09-15T07:52:21.147Z,22.17
2022-09-15T07:54:48.000Z,22.77
2022-09-15T07:57:14.887Z,22.33
2022-09-15T08:00:01.625Z,22.33
2022-09-15T08:02:45.124Z,22.63
2022-09-15T08:05:11.980Z,24.67
2022-09-15T08:07:58.655Z,24.15
2022-09-15T08:10:41.141Z,21.58
2022-09-15T08:13:28.629Z,22.60
2022-09-15T08:16:15.073Z,19.70
2022-09-15T08:18:43.272Z,19.02
2022-09-15T08:21:13.715Z,19.60
2022-09-15T08:23:41.110Z,16.38
2022-09-15T08:26:14.106Z,16.45
2022-09-15T08:28:42.478Z,15.93
2022-09-15T08:31:11.667Z,20.42
2022-09-15T08:33:44.561Z,19.42
2022-09-15T08:36:12.722Z,18.48
2022-09-15T08:38:40.861Z,17.80
2022-09-15T08:41:14.119Z,19.35
2022-09-15T08:43:58.107Z,15.35
2022-09-15T08:46:35.994Z,14.85
2022-09-15T08:49:15.163Z,15.70
2022-09-15T08:51:46.952Z,14.27
2022-09-15T08:54:26.808Z,14.68
2022-09-15T08:56:56.478Z,13.43
2022-09-15T08:59:47.624Z,12.30
2022-09-15T09:03:19.592Z,11.65
2022-09-15T09:06:37.628Z,9.45
2022-09-15T09:09:45.625Z,8.48
2022-09-15T09:13:24.624Z,6.05
2022-09-15T09:16:20.324Z,7.82
2022-09-15T09:18:53.182Z,6.78
2022-09-15T09:21:29.662Z,6.50
2022-09-15T09:24:15.257Z,5.13
2022-09-15T09:26:42.972Z,5.03
2022-09-15T09:29:18.524Z,3.38
2022-09-15T09:31:51.118Z,4.40
2022-09-15T09:34:43.151Z,4.78
2022-09-15T09:37:17.309Z,4.47
2022-09-15T09:40:04.735Z,5.63
2022-09-15T09:42:45.778Z,4.03
2022-09-15T09:45:18.989Z,4.07
2022-09-15T09:47:49.130Z,3.40
2022-09-15T09:50:36.374Z,3.95
2022-09-15T09:53:24.357Z,2.78
2022-09-15T09:55:53.325Z,3.50
2022-09-15T09:58:40.720Z,4.65
2022-09-15T10:01:25.547Z,4.82
2022-09-15T10:04:17.208Z,4.25
2022-09-15T10:07:04.647Z,3.88
2022-09-15T10:10:15.731Z,4.38
2022-09-15T10:13:16.678Z,4.43
2022-09-15T10:16:03.547Z,3.83
2022-09-15T10:18:34.629Z,4.18
2022-09-15T10:21:04.962Z,3.08
2022-09-15T10:23:34.164Z,4.97
2022-09-15T10:26:16.249Z,4.57
2022-09-15T10:28:44.750Z,3.65
2022-09-15T10:31:30.517Z,4.60
2022-09-15T10:33:57.425Z,3.70
2022-09-15T10:36:30.763Z,3.38
2022-09-15T10:39:12.792Z,3.78
2022-09-15T10:42:12.682Z,3.17
2022-09-15T10:45:45.696Z,3.10
2022-09-15T10:48:27.822Z,2.80
2022-09-15T10:51:16.166Z,3.13
2022-09-15T10:53:57.644Z,2.92
2022-09-15T10:56:29.817Z,2.88
2022-09-15T10:59:41.698Z,3.15
2022-09-15T11:03:10.729Z,4.03
2022-09-15T11:06:28.962Z,3.50
2022-09-15T11:09:45.780Z,3.47
2022-09-15T11:13:05.698Z,3.67
2022-09-15T11:16:12.206Z,3.72
2022-09-15T11:18:45.152Z,2.42
2022-09-15T11:21:18.158Z,3.17
2022-09-15T11:24:03.861Z,2.85
2022-09-15T11:26:37.660Z,2.65
2022-09-15T11:29:18.595Z,2.75
2022-09-15T11:31:52.343Z,2.92
2022-09-15T11:34:32.112Z,3.10
2022-09-15T11:37:21.121Z,2.20
2022-09-15T11:40:17.816Z,2.35
2022-09-15T11:43:39.704Z,2.25
2022-09-15T11:47:03.731Z,3.25
2022-09-15T11:49:47.089Z,3.85
2022-09-15T11:52:32.780Z,3.17
2022-09-15T11:55:13.909Z,3.13
2022-09-15T11:58:24.740Z,2.90
2022-09-15T12:01:16.175Z,3.13
2022-09-15T12:04:13.718Z,2.92
2022-09-15T12:07:22.764Z,2.45
2022-09-15T12:10:28.381Z,2.70
2022-09-15T12:12:56.620Z,1.83
2022-09-15T12:15:27.523Z,3.05
2022-09-15T12:18:39.830Z,2.95
2022-09-15T12:22:02.765Z,3.63
2022-09-15T12:25:09.533Z,2.58
2022-09-15T12:27:36.477Z,2.58
2022-09-15T12:30:04.630Z,2.38
2022-09-15T12:32:34.953Z,2.33
2022-09-15T12:35:30.795Z,2.75
2022-09-15T12:38:14.167Z,2.72
2022-09-15T12:41:11.803Z,3.60
2022-09-15T12:43:53.837Z,2.55
2022-09-15T12:46:20.998Z,2.78
2022-09-15T12:48:49.789Z,2.17
2022-09-15T12:51:41.755Z,2.38
2022-09-15T12:54:26.878Z,2.58
2022-09-15T12:57:14.778Z,3.25
2022-09-15T13:00:33.783Z,2.67
2022-09-15T13:06:37.799Z,2.45
2022-09-15T13:09:41.770Z,2.67
2022-09-15T13:12:26.541Z,3.13
2022-09-15T13:14:56.880Z,2.45
2022-09-15T13:17:25.865Z,3.08
2022-09-15T13:20:00.439Z,2.45
2022-09-15T13:22:32.340Z,2.80
2022-09-15T13:25:13.793Z,3.00
2022-09-15T13:27:54.864Z,2.65
2022-09-15T13:30:24.894Z,2.75
2022-09-15T13:33:22.413Z,2.95
2022-09-15T13:35:52.419Z,3.00
2022-09-15T13:38:58.806Z,3.05
2022-09-15T13:42:05.809Z,2.15
2022-09-15T13:45:24.799Z,2.35
2022-09-15T13:48:55.830Z,2.30
2022-09-15T13:52:04.839Z,2.10
2022-09-15T13:55:07.217Z,3.10
2022-09-15T14:01:09.071Z,3.40
2022-09-15T14:03:38.955Z,3.25
2022-09-15T14:06:33.870Z,2.72
2022-09-15T14:09:18.306Z,3.40
2022-09-15T14:11:49.828Z,3.20
2022-09-15T14:14:45.626Z,3.20
2022-09-15T14:17:24.222Z,2.20
2022-09-15T14:19:59.356Z,2.80
2022-09-15T14:22:48.831Z,3.20
2022-09-15T14:25:30.694Z,3.33
2022-09-15T14:27:57.681Z,3.10
2022-09-15T14:30:27.797Z,3.08
2022-09-15T14:33:00.711Z,2.67
2022-09-15T14:35:35.841Z,2.80
2022-09-15T14:38:36.836Z,3.25
2022-09-15T14:47:44.882Z,2.58
2022-09-15T14:50:45.855Z,3.63
2022-09-15T14:53:27.904Z,3.28
2022-09-15T14:56:08.984Z,3.67
2022-09-15T14:59:05.858Z,3.85
2022-09-15T15:01:56.709Z,4.13
2022-09-15T15:04:24.447Z,7.63
2022-09-15T15:07:20.858Z,5.30
2022-09-15T15:10:04.730Z,3.47
2022-09-15T15:12:47.671Z,7.13
2022-09-15T15:15:16.472Z,8.57
2022-09-15T15:17:49.813Z,6.82
2022-09-15T15:20:42.871Z,9.23
2022-09-15T15:23:25.707Z,10.73
2022-09-15T15:25:53.548Z,6.28
2022-09-15T15:28:31.276Z,8.82
2022-09-15T15:31:19.814Z,9.45
2022-09-15T15:33:55.858Z,6.85
2022-09-15T15:36:24.684Z,6.25
2022-09-15T15:39:19.870Z,3.90
2022-09-15T15:42:20.904Z,7.13
2022-09-15T15:45:36.966Z,7.05
2022-09-15T15:48:39.931Z,3.65
2022-09-15T15:51:40.907Z,3.55
2022-09-15T15:54:41.955Z,5.22
2022-09-15T15:57:28.005Z,4.43
2022-09-15T16:00:17.727Z,2.67
2022-09-15T16:03:01.432Z,4.68
2022-09-15T16:05:48.954Z,2.17
2022-09-15T16:08:53.042Z,2.38
2022-09-15T16:11:33.527Z,2.50
2022-09-15T16:14:00.883Z,2.78
2022-09-15T16:16:29.283Z,2.40
2022-09-15T16:18:56.355Z,3.47
2022-09-15T16:21:44.980Z,1.92
2022-09-15T16:24:45.903Z,1.83
2022-09-15T16:27:17.732Z,3.45
2022-09-15T16:29:45.091Z,2.22
2022-09-15T16:32:18.638Z,2.40
2022-09-15T16:37:12.956Z,2.15
2022-09-15T16:40:00.949Z,2.67
2022-09-15T16:42:41.580Z,2.58
2022-09-15T16:45:22.968Z,3.10
2022-09-15T16:48:09.944Z,2.63
2022-09-15T16:54:32.927Z,3.45
2022-09-15T16:57:33.935Z,2.88
2022-09-15T17:00:34.994Z,2.65
2022-09-15T17:03:17.766Z,2.67
2022-09-15T17:06:06.964Z,2.58
2022-09-15T17:09:07.942Z,2.85
2022-09-15T17:11:48.628Z,3.28
2022-09-15T17:14:17.027Z,2.97
2022-09-15T17:16:47.296Z,2.78
2022-09-15T17:19:14.447Z,2.92
2022-09-15T17:21:41.462Z,2.45
2022-09-15T17:24:08.912Z,2.97
2022-09-15T17:26:35.799Z,3.40
2022-09-15T17:29:02.758Z,2.78
2022-09-15T17:31:29.905Z,3.00
2022-09-15T17:33:57.367Z,2.70
2022-09-15T17:36:24.430Z,2.67
2022-09-15T17:38:51.366Z,4.60
2022-09-15T17:41:37.973Z,3.08
2022-09-15T17:44:25.543Z,2.85
2022-09-15T17:46:52.568Z,2.45
2022-09-15T17:49:19.443Z,2.78
2022-09-15T17:51:46.381Z,3.63
2022-09-15T17:54:33.008Z,4.15
2022-09-15T17:57:34.002Z,3.47
2022-09-15T18:00:36.022Z,3.20
2022-09-15T18:03:43.055Z,6.03
2022-09-15T18:06:45.702Z,4.13
2022-09-15T18:09:46.001Z,3.30
2022-09-15T18:12:26.785Z,3.70
2022-09-15T18:14:53.635Z,5.32
2022-09-15T18:17:40.983Z,3.25
2022-09-15T18:20:24.110Z,3.20
2022-09-15T18:22:51.196Z,4.13
2022-09-15T18:25:20.630Z,6.18
2022-09-15T18:27:49.378Z,4.53
2022-09-15T18:30:17.005Z,4.32
2022-09-15T18:32:44.805Z,3.53
2022-09-15T18:35:32.984Z,4.03
2022-09-15T18:38:13.965Z,4.95
2022-09-15T18:40:49.333Z,3.80
2022-09-15T18:43:37.030Z,5.07
2022-09-15T18:46:18.336Z,4.38
2022-09-15T18:48:45.280Z,3.95
2022-09-15T18:51:19.682Z,3.42
2022-09-15T18:53:54.293Z,3.33
2022-09-15T18:56:21.517Z,4.85
2022-09-15T18:59:08.049Z,3.65
2022-09-15T19:02:09.183Z,3.83
2022-09-15T19:04:49.711Z,4.07
2022-09-15T19:07:37.018Z,4.68
2022-09-15T19:10:17.837Z,3.47
2022-09-15T19:12:44.833Z,3.65
2022-09-15T19:15:13.547Z,2.53
2022-09-15T19:18:00.040Z,3.92
2022-09-15T19:20:40.921Z,3.50
2022-09-15T19:23:09.139Z,3.00
2022-09-15T19:25:36.437Z,3.38
2022-09-15T19:28:03.772Z,3.85
2022-09-15T19:30:30.680Z,4.13
2022-09-15T19:32:57.586Z,3.40
2022-09-15T19:35:24.900Z,2.67
2022-09-15T19:37:51.877Z,2.72
2022-09-15T19:40:19.055Z,3.13
2022-09-15T19:42:46.203Z,3.42
2022-09-15T19:45:13.627Z,3.70
2022-09-15T19:47:41.316Z,3.03
2022-09-15T19:50:10.084Z,2.65
2022-09-15T19:52:37.205Z,1.98
2022-09-15T19:55:25.073Z,2.92
2022-09-15T19:58:26.095Z,3.42
2022-09-15T20:01:28.135Z,2.90
2022-09-15T20:04:22.230Z,2.65
2022-09-15T20:07:23.072Z,3.50
2022-09-15T20:10:04.722Z,2.80
2022-09-15T20:12:52.060Z,3.60
2022-09-15T20:15:32.557Z,3.30
2022-09-15T20:18:24.090Z,3.42
2022-09-15T20:21:08.188Z,2.38
2022-09-15T20:23:35.610Z,3.72
2022-09-15T20:26:26.110Z,3.63
2022-09-15T20:29:07.002Z,3.00
2022-09-15T20:31:34.221Z,3.08
2022-09-15T20:34:02.355Z,3.50
2022-09-15T20:36:33.457Z,3.50
2022-09-15T20:39:03.229Z,3.35
2022-09-15T20:41:31.999Z,3.03
2022-09-15T20:43:59.639Z,2.78
2022-09-15T20:46:29.165Z,3.28
2022-09-15T20:48:56.098Z,3.28
2022-09-15T20:51:25.754Z,2.72
2022-09-15T20:53:54.894Z,2.42
2022-09-15T20:56:44.119Z,3.38
2022-09-15T20:59:38.309Z,3.53
2022-09-15T21:02:39.221Z,2.90
2022-09-15T21:05:19.634Z,2.83
2022-09-15T21:08:20.102Z,3.55
2022-09-15T21:11:23.102Z,3.17
2022-09-15T21:14:04.004Z,3.13
2022-09-15T21:16:31.585Z,3.53
2022-09-15T21:18:59.269Z,2.47
2022-09-15T21:21:29.885Z,2.55
2022-09-15T21:24:00.403Z,3.20
2022-09-15T21:26:29.330Z,3.58
2022-09-15T21:28:57.320Z,3.40
2022-09-15T21:31:33.371Z,4.25
2022-09-15T21:34:20.125Z,4.07
2022-09-15T21:37:00.627Z,3.45
2022-09-15T21:39:27.757Z,2.78
2022-09-15T21:41:54.686Z,4.13
2022-09-15T21:44:21.574Z,4.13
2022-09-15T21:46:48.457Z,3.42
2022-09-15T21:49:15.372Z,3.03
2022-09-15T21:51:42.292Z,3.28
2022-09-15T21:54:10.025Z,3.10
2022-09-15T21:56:57.144Z,4.15
2022-09-15T21:59:58.172Z,3.42
2022-09-15T22:02:38.697Z,3.90
2022-09-15T22:05:06.380Z,2.97
2022-09-15T22:07:33.154Z,3.63
2022-09-15T22:10:20.194Z,3.72
2022-09-15T22:13:23.149Z,3.90
2022-09-15T22:16:10.064Z,3.25
2022-09-15T22:18:38.547Z,3.67
2022-09-15T22:21:11.472Z,3.70
2022-09-15T22:23:39.538Z,2.78
2022-09-15T22:26:38.150Z,3.22
2022-09-15T22:29:18.987Z,2.75
2022-09-15T22:31:45.973Z,3.33
2022-09-15T22:34:12.814Z,3.95
2022-09-15T22:36:39.716Z,5.30
2022-09-15T22:39:06.954Z,3.80
2022-09-15T22:41:36.302Z,4.15
2022-09-15T22:44:04.466Z,4.05
2022-09-15T22:46:31.849Z,3.50
2022-09-15T22:49:01.633Z,4.53
2022-09-15T22:51:29.978Z,4.60
2022-09-15T22:53:57.590Z,4.28
2022-09-15T22:56:26.216Z,4.38
2022-09-15T22:59:13.207Z,3.53
2022-09-15T23:02:14.247Z,5.05
2022-09-15T23:04:54.783Z,4.22
2022-09-15T23:07:21.737Z,3.00
2022-09-15T23:10:09.205Z,4.30
2022-09-15T23:13:12.198Z,3.88
2022-09-15T23:15:52.704Z,5.07
2022-09-15T23:18:19.527Z,4.85
2022-09-15T23:20:46.678Z,4.53
2022-09-15T23:23:13.615Z,4.38
2022-09-15T23:25:40.720Z,4.18
2022-09-15T23:28:07.588Z,4.97
2022-09-15T23:30:54.262Z,4.03
2022-09-15T23:33:56.218Z,5.32
2022-09-15T23:36:36.943Z,6.03
2022-09-15T23:39:03.938Z,4.95
2022-09-15T23:41:31.180Z,4.38
2022-09-15T23:43:59.874Z,6.30
2022-09-15T23:46:27.025Z,6.70
2022-09-15T23:48:54.240Z,6.07
2022-09-15T23:51:21.627Z,5.45
2022-09-15T23:53:48.570Z,5.25
2022-09-15T23:56:15.685Z,5.05
2022-09-15T23:59:03.258Z,5.82
